Time;durP1;ratioP1;P1;durP2;ratioP2;P2;SDS_P1;SDS_P2;PMS_P1;PMS_P2;Temp;Humidity;BMP_temperature;BMP_pressure;BME280_temperature;BME280_humidity;BME280_pressure;Samples;Min_cycle;Max_cycle;Signal;HPM_P1;HPM_P2
2022/08/20 00:01:11;;;;;;;;;;;;;;;27.37;42.18;99174.03;3121580;28;19929;-66
2022/08/20 00:02:44;;;;;;;;;;;;;;;27.35;41.86;99175.25;3121634;28;19925;-67
2022/08/20 00:04:17;;;;;;;;;;;;;;;27.35;41.52;99170.72;3121647;28;19933;-66
2022/08/20 00:05:51;;;;;;;;;;;;;;;27.36;41.32;99169.72;3121298;28;20057;-66
2022/08/20 00:07:23;;;;;;;;;;;;;;;27.37;41.00;99174.03;3120046;28;19932;-66
2022/08/20 00:08:54;;;;;;;;;;;;;;;27.38;41.13;99175.69;3121403;28;19925;-65
2022/08/20 00:10:25;;;;;;;;;;;;;;;27.37;41.29;99174.03;3120444;28;19951;-66
2022/08/20 00:11:57;;;;;;;;;;;;;;;27.36;41.83;99171.56;3112260;28;19925;-66
2022/08/20 00:13:30;;;;;;;;;;;;;;;27.32;41.68;99173.78;3121490;28;19925;-66
2022/08/20 00:15:03;;;;;;;;;;;;;;;27.29;42.06;99168.84;3121261;28;20308;-65
2022/08/20 00:16:36;;;;;;;;;;;;;;;27.26;41.83;99171.06;3121494;28;19925;-66
2022/08/20 00:18:08;;;;;;;;;;;;;;;27.21;42.80;99168.97;3121401;28;19925;-65
2022/08/20 00:19:40;;;;;;;;;;;;;;;27.19;41.96;99163.00;3121308;28;19944;-65
2022/08/20 00:21:13;;;;;;;;;;;;;;;27.19;41.85;99161.16;3121275;28;20403;-65
2022/08/20 00:22:44;;;;;;;;;;;;;;;27.21;41.78;99168.97;3121334;28;19929;-66
2022/08/20 00:24:16;;;;;;;;;;;;;;;27.22;42.11;99171.47;3121530;28;19937;-68
2022/08/20 00:25:48;;;;;;;;;;;;;;;27.23;41.98;99166.94;3118411;28;19925;-66
2022/08/20 00:27:20;;;;;;;;;;;;;;;27.23;41.85;99166.94;3129979;28;19931;-66
2022/08/20 00:28:52;;;;;;;;;;;;;;;27.23;41.95;99166.94;3121351;28;19940;-65
2022/08/20 00:30:23;;;;;;;;;;;;;;;27.23;41.84;99161.59;3121285;28;19933;-64
2022/08/20 00:31:55;;;;;;;;;;;;;;;27.24;41.53;99163.22;3121078;28;19925;-65
2022/08/20 00:33:26;;;;;;;;;;;;;;;27.21;41.84;99167.13;3121367;28;19962;-65
2022/08/20 00:34:59;;;;;;;;;;;;;;;27.18;42.05;99164.84;3121060;28;19936;-65
2022/08/20 00:36:31;;;;;;;;;;;;;;;27.16;41.88;99160.72;3121346;28;19930;-65
2022/08/20 00:38:04;;;;;;;;;;;;;;;27.13;42.32;99156.53;3121037;28;19925;-65
2022/08/20 00:39:35;;;;;;;;;;;;;;;27.09;43.12;99157.09;3121297;28;19936;-66
2022/08/20 00:41:08;;;;;;;;;;;;;;;27.02;43.84;99159.72;3119257;28;19925;-65
2022/08/20 00:42:40;;;;;;;;;;;;;;;26.95;43.68;99157.00;3113176;28;19929;-65
2022/08/20 00:44:13;;;;;;;;;;;;;;;26.95;43.81;99153.50;3120568;28;19956;-65
2022/08/20 00:45:45;;;;;;;;;;;;;;;26.93;43.58;99156.34;3120959;28;20288;-66
2022/08/20 00:47:17;;;;;;;;;;;;;;;26.94;43.29;99152.66;3121275;28;19925;-64
2022/08/20 00:48:49;;;;;;;;;;;;;;;26.93;42.95;99151.00;3121384;28;19985;-66
2022/08/20 00:50:23;;;;;;;;;;;;;;;26.96;43.22;99152.47;3121108;28;19929;-67
2022/08/20 00:51:57;;;;;;;;;;;;;;;26.95;43.20;99153.50;3120894;28;20357;-65
2022/08/20 00:53:28;;;;;;;;;;;;;;;26.94;43.51;99160.66;3121399;28;19925;-65
2022/08/20 00:55:01;;;;;;;;;;;;;;;26.87;45.00;99170.47;3121082;28;19940;-65
2022/08/20 00:56:34;;;;;;;;;;;;;;;26.84;44.50;99162.84;3120631;28;19926;-65
2022/08/20 00:58:08;;;;;;;;;;;;;;;26.84;43.98;99157.50;3120986;28;19925;-64
2022/08/20 00:59:41;;;;;;;;;;;;;;;26.83;44.75;99157.66;3121181;28;19929;-64
2022/08/20 01:01:12;;;;;;;;;;;;;;;26.77;45.11;99164.63;3122177;28;19925;-65
2022/08/20 01:02:44;;;;;;;;;;;;;;;26.75;44.62;99163.97;3123368;28;19925;-65
2022/08/20 01:04:16;;;;;;;;;;;;;;;26.70;45.11;99161.03;3123219;28;19993;-65
2022/08/20 01:05:49;;;;;;;;;;;;;;;26.66;44.44;99159.75;3123102;28;19936;-64
2022/08/20 01:07:27;;;;;;;;;;;;;;;26.65;44.16;99153.59;3121618;28;20368;-65
2022/08/20 01:09:00;;;;;;;;;;;;;;;26.64;44.31;99159.13;3122980;28;19947;-66
2022/08/20 01:10:34;;;;;;;;;;;;;;;26.61;44.29;99156.81;3121076;28;19929;-65
2022/08/20 01:12:05;;;;;;;;;;;;;;;26.59;44.22;99159.69;3115586;28;20020;-66
2022/08/20 01:13:38;;;;;;;;;;;;;;;26.57;43.95;99150.22;3123193;28;19925;-65
2022/08/20 01:15:12;;;;;;;;;;;;;;;26.56;44.16;99160.03;3123068;28;19939;-65
2022/08/20 01:16:45;;;;;;;;;;;;;;;26.52;44.27;99156.94;3123026;28;20395;-66
2022/08/20 01:18:18;;;;;;;;;;;;;;;26.51;44.00;99157.94;3123394;28;19925;-65
2022/08/20 01:19:54;;;;;;;;;;;;;;;26.48;44.90;99152.13;3122863;28;19941;-65
2022/08/20 01:21:27;;;;;;;;;;;;;;;26.41;44.49;99148.53;3122883;28;19925;-65
2022/08/20 01:25:03;;;;;;;;;;;;;;;26.40;44.04;99147.72;3122421;28;19925;-65
2022/08/20 01:26:38;;;;;;;;;;;;;;;26.38;44.69;99147.06;3129699;28;19994;-64
2022/08/20 01:28:09;;;;;;;;;;;;;;;26.36;44.56;99153.63;3124651;28;19940;-65
2022/08/20 01:29:41;;;;;;;;;;;;;;;26.33;44.72;99150.31;3136707;27;20404;-65
2022/08/20 01:31:13;;;;;;;;;;;;;;;26.30;44.71;99142.69;3118529;28;19925;-65
2022/08/20 01:32:45;;;;;;;;;;;;;;;26.27;44.97;99140.41;3123213;28;19926;-65
2022/08/20 01:34:18;;;;;;;;;;;;;;;26.25;44.89;99136.25;3122836;28;19929;-65
2022/08/20 01:35:49;;;;;;;;;;;;;;;26.22;44.72;99139.28;3122956;28;19926;-65
2022/08/20 01:37:21;;;;;;;;;;;;;;;26.21;44.80;99140.31;3123023;28;19944;-65
2022/08/20 01:38:52;;;;;;;;;;;;;;;26.18;44.99;99132.69;3123139;28;19925;-65
2022/08/20 01:40:33;;;;;;;;;;;;;;;26.15;44.68;99141.88;3122749;28;20368;-65
2022/08/20 01:42:11;;;;;;;;;;;;;;;26.15;44.82;99149.03;3113321;28;19925;-65
2022/08/20 01:43:45;;;;;;;;;;;;;;;26.12;44.87;99144.06;3110847;28;19925;-65
2022/08/20 01:45:17;;;;;;;;;;;;;;;26.09;44.41;99143.44;3122506;28;19925;-65
2022/08/20 01:46:50;;;;;;;;;;;;;;;26.07;44.56;99140.13;3122727;28;20307;-65
2022/08/20 01:48:21;;;;;;;;;;;;;;;26.06;44.53;99145.66;3122714;28;19929;-65
2022/08/20 01:49:54;;;;;;;;;;;;;;;26.04;44.60;99143.16;3122610;28;20363;-65
2022/08/20 01:51:28;;;;;;;;;;;;;;;25.99;44.38;99142.06;3122819;28;19929;-65
2022/08/20 01:53:03;;;;;;;;;;;;;;;25.95;44.80;99149.63;3122473;28;19981;-65
2022/08/20 01:54:35;;;;;;;;;;;;;;;25.88;44.48;99143.34;3122779;28;20004;-64
2022/08/20 01:56:08;;;;;;;;;;;;;;;25.82;44.72;99144.94;3121641;28;20308;-65
2022/08/20 01:57:41;;;;;;;;;;;;;;;25.79;44.82;99147.94;3122373;28;20289;-65
2022/08/20 01:59:13;;;;;;;;;;;;;;;25.76;45.49;99144.78;3122525;28;19978;-64
2022/08/20 02:00:44;;;;;;;;;;;;;;;25.72;45.30;99154.16;3122622;28;19929;-64
2022/08/20 02:02:15;;;;;;;;;;;;;;;25.71;45.04;99152.53;3122806;28;20020;-64
2022/08/20 02:03:46;;;;;;;;;;;;;;;25.68;45.28;99153.72;3122803;28;19925;-64
2022/08/20 02:05:18;;;;;;;;;;;;;;;25.64;45.44;99155.91;3122466;28;19925;-64
2022/08/20 02:06:51;;;;;;;;;;;;;;;25.61;44.94;99160.78;3121204;28;19929;-65
2022/08/20 02:08:23;;;;;;;;;;;;;;;25.58;44.88;99155.78;3122537;28;20421;-64
2022/08/20 02:09:55;;;;;;;;;;;;;;;25.55;44.89;99150.84;3122300;28;19937;-64
2022/08/20 02:11:27;;;;;;;;;;;;;;;25.51;45.28;99158.38;3113052;28;19953;-64
2022/08/20 02:13:00;;;;;;;;;;;;;;;25.47;45.49;99154.41;3121809;28;19960;-64
2022/08/20 02:14:33;;;;;;;;;;;;;;;25.43;45.34;99150.44;3122471;28;19925;-65
2022/08/20 02:16:05;;;;;;;;;;;;;;;25.36;45.94;99154.84;3122429;28;19925;-65
2022/08/20 02:17:36;;;;;;;;;;;;;;;25.33;45.44;99158.69;3122302;28;19965;-64
2022/08/20 02:19:11;;;;;;;;;;;;;;;25.34;45.56;99154.19;3122418;28;20021;-64
2022/08/20 02:20:43;;;;;;;;;;;;;;;25.33;45.76;99158.69;3122494;28;19925;-64
2022/08/20 02:22:18;;;;;;;;;;;;;;;25.32;45.25;99162.38;3122121;28;19925;-64
2022/08/20 02:23:49;;;;;;;;;;;;;;;25.32;45.39;99151.72;3122244;28;20350;-64
2022/08/20 02:25:23;;;;;;;;;;;;;;;25.33;45.21;99153.38;3122229;28;19944;-65
2022/08/20 02:26:54;;;;;;;;;;;;;;;25.32;45.31;99157.06;3131183;28;19936;-63
2022/08/20 02:28:26;;;;;;;;;;;;;;;25.31;45.56;99150.03;3119902;28;20234;-64
2022/08/20 02:29:58;;;;;;;;;;;;;;;25.33;45.43;99150.69;3122156;28;20293;-64
2022/08/20 02:31:30;;;;;;;;;;;;;;;25.34;45.28;99149.69;3122166;28;20024;-64
2022/08/20 02:33:02;;;;;;;;;;;;;;;25.33;45.40;99145.38;3122456;28;19929;-65
2022/08/20 02:34:34;;;;;;;;;;;;;;;25.32;45.93;99151.72;3122279;28;19932;-65
2022/08/20 02:36:06;;;;;;;;;;;;;;;25.25;46.30;99145.44;3122051;28;20393;-65
2022/08/20 02:37:38;;;;;;;;;;;;;;;25.24;46.15;99145.63;3122219;28;19926;-64
2022/08/20 02:39:12;;;;;;;;;;;;;;;25.23;46.07;99151.94;3122291;28;19940;-64
2022/08/20 02:40:43;;;;;;;;;;;;;;;25.20;46.25;99153.13;3121922;28;19925;-64
2022/08/20 02:42:15;;;;;;;;;;;;;;;25.18;46.23;99148.00;3111799;28;19938;-65
2022/08/20 02:43:50;;;;;;;;;;;;;;;25.19;46.42;99146.97;3122358;28;19926;-64
2022/08/20 02:45:21;;;;;;;;;;;;;;;25.19;46.04;99144.31;3122123;28;19933;-64
2022/08/20 02:46:53;;;;;;;;;;;;;;;25.21;46.03;99141.47;3122229;28;19925;-64
2022/08/20 02:48:23;;;;;;;;;;;;;;;25.22;45.90;99144.97;3121638;28;19986;-65
2022/08/20 02:49:56;;;;;;;;;;;;;;;25.23;45.84;99149.28;3122303;28;19925;-64
2022/08/20 02:51:28;;;;;;;;;;;;;;;25.23;46.25;99151.94;3122120;28;20000;-65
2022/08/20 02:52:59;;;;;;;;;;;;;;;25.21;45.92;99149.47;3121928;28;19931;-65
2022/08/20 02:54:30;;;;;;;;;;;;;;;25.19;46.29;99143.50;3122018;28;19933;-64
2022/08/20 02:56:02;;;;;;;;;;;;;;;25.14;46.34;99149.38;3122060;28;19957;-65
2022/08/20 02:57:34;;;;;;;;;;;;;;;25.14;46.26;99144.03;3122149;28;19925;-64
2022/08/20 02:59:07;;;;;;;;;;;;;;;25.17;45.95;99148.16;3121972;28;19940;-64
2022/08/20 03:00:40;;;;;;;;;;;;;;;25.16;46.16;99144.69;3121840;28;19932;-64
2022/08/20 03:02:10;;;;;;;;;;;;;;;25.17;45.98;99141.03;3122275;28;19930;-65
2022/08/20 03:03:42;;;;;;;;;;;;;;;25.15;46.09;99140.38;3122066;27;20005;-64
2022/08/20 03:05:14;;;;;;;;;;;;;;;25.13;45.74;99145.03;3121961;28;19936;-64
2022/08/20 03:06:46;;;;;;;;;;;;;;;25.11;45.83;99138.19;3121967;28;19940;-64
2022/08/20 03:08:17;;;;;;;;;;;;;;;25.09;45.84;99146.38;3121715;28;19925;-64
2022/08/20 03:09:49;;;;;;;;;;;;;;;25.08;45.85;99146.53;3121869;28;19925;-64
2022/08/20 03:11:20;;;;;;;;;;;;;;;25.07;45.96;99148.38;3113398;28;19929;-64
2022/08/20 03:12:51;;;;;;;;;;;;;;;25.07;45.99;99139.56;3120770;28;19936;-64
2022/08/20 03:14:25;;;;;;;;;;;;;;;25.05;46.54;99139.72;3121800;28;19936;-64
2022/08/20 03:15:56;;;;;;;;;;;;;;;25.02;46.51;99140.09;3121877;28;19929;-64
2022/08/20 03:17:28;;;;;;;;;;;;;;;24.98;46.69;99134.28;3121834;28;20035;-64
2022/08/20 03:19:00;;;;;;;;;;;;;;;24.96;46.97;99135.47;3121920;28;19937;-64
2022/08/20 03:20:30;;;;;;;;;;;;;;;24.94;47.03;99134.84;3121833;28;19929;-64
2022/08/20 03:22:02;;;;;;;;;;;;;;;24.87;47.76;99134.69;3121753;28;19925;-64
2022/08/20 03:23:34;;;;;;;;;;;;;;;24.83;47.50;99137.91;3121038;28;20351;-64
2022/08/20 03:25:06;;;;;;;;;;;;;;;24.82;47.22;99136.28;3122148;28;19940;-64
2022/08/20 03:26:37;;;;;;;;;;;;;;;24.82;47.42;99136.28;3132593;27;19931;-64
2022/08/20 03:28:09;;;;;;;;;;;;;;;24.80;47.07;99138.28;3124981;27;19937;-65
2022/08/20 03:29:42;;;;;;;;;;;;;;;24.80;46.85;99140.94;3121707;28;19937;-65
2022/08/20 03:31:14;;;;;;;;;;;;;;;24.77;47.00;99136.78;3121794;28;19940;-64
2022/08/20 03:32:46;;;;;;;;;;;;;;;24.75;47.12;99144.94;3121557;28;20008;-64
2022/08/20 03:34:17;;;;;;;;;;;;;;;24.74;47.34;99143.28;3121519;28;19975;-64
2022/08/20 03:35:49;;;;;;;;;;;;;;;24.72;47.22;99147.13;3121641;28;19989;-64
2022/08/20 03:37:21;;;;;;;;;;;;;;;24.68;47.20;99151.97;3121692;28;19945;-64
2022/08/20 03:38:52;;;;;;;;;;;;;;;24.64;48.08;99156.00;3121561;28;19925;-65
2022/08/20 03:40:27;;;;;;;;;;;;;;;24.54;48.42;99158.06;3121315;28;20352;-65
2022/08/20 03:41:58;;;;;;;;;;;;;;;24.53;47.96;99156.41;3113111;28;19932;-64
2022/08/20 03:43:30;;;;;;;;;;;;;;;24.48;48.56;99156.91;3120104;28;19955;-64
2022/08/20 03:45:02;;;;;;;;;;;;;;;24.47;48.44;99149.13;3120663;28;19933;-64
2022/08/20 03:46:34;;;;;;;;;;;;;;;24.48;48.60;99148.09;3121580;28;19926;-65
2022/08/20 03:48:06;;;;;;;;;;;;;;;24.47;48.20;99155.25;3121462;28;20281;-64
2022/08/20 03:49:38;;;;;;;;;;;;;;;24.48;48.17;99156.91;3121332;28;20261;-64
2022/08/20 03:51:09;;;;;;;;;;;;;;;24.45;48.58;99151.13;3121532;28;19925;-64
2022/08/20 03:52:40;;;;;;;;;;;;;;;24.40;48.70;99156.94;3121472;28;20581;-65
2022/08/20 03:54:12;;;;;;;;;;;;;;;24.33;49.01;99155.13;3121468;28;19939;-64
2022/08/20 03:55:44;;;;;;;;;;;;;;;24.26;49.66;99157.66;3121225;28;19944;-65
2022/08/20 03:57:16;;;;;;;;;;;;;;;24.20;49.62;99155.69;3121396;28;19925;-64
2022/08/20 03:58:47;;;;;;;;;;;;;;;24.13;50.00;99150.22;3121744;28;19925;-64
2022/08/20 04:00:23;;;;;;;;;;;;;;;24.10;50.47;99147.09;3121472;28;19948;-64
2022/08/20 04:01:55;;;;;;;;;;;;;;;24.08;50.12;99152.59;3121234;28;19936;-65
2022/08/20 04:03:27;;;;;;;;;;;;;;;24.09;49.80;99154.25;3121246;28;20300;-65
2022/08/20 04:04:58;;;;;;;;;;;;;;;24.13;49.80;99154.72;3121502;28;19985;-64
2022/08/20 04:06:30;;;;;;;;;;;;;;;24.17;49.75;99156.88;3119850;28;19933;-64
2022/08/20 04:08:01;;;;;;;;;;;;;;;24.20;49.84;99156.53;3121458;28;19929;-64
2022/08/20 04:09:33;;;;;;;;;;;;;;;24.25;49.07;99156.00;3121463;28;19925;-64
2022/08/20 04:11:05;;;;;;;;;;;;;;;24.28;49.17;99151.19;3115305;28;19932;-64
2022/08/20 04:12:39;;;;;;;;;;;;;;;24.31;49.13;99152.63;3117615;28;20277;-64
2022/08/20 04:14:11;;;;;;;;;;;;;;;24.34;49.17;99151.47;3121416;28;19936;-64
2022/08/20 04:15:45;;;;;;;;;;;;;;;24.34;49.42;99144.31;3121278;28;19926;-64
2022/08/20 04:17:17;;;;;;;;;;;;;;;24.33;49.96;99144.50;3121362;28;20364;-65
2022/08/20 04:18:49;;;;;;;;;;;;;;;24.35;49.55;99153.16;3121224;28;20368;-63
2022/08/20 04:20:22;;;;;;;;;;;;;;;24.39;49.17;99154.44;3120963;28;19925;-64
2022/08/20 04:21:54;;;;;;;;;;;;;;;24.44;49.22;99152.13;3121191;28;19937;-64
2022/08/20 04:23:25;;;;;;;;;;;;;;;24.47;48.99;99154.44;3121218;28;19936;-64
2022/08/20 04:24:56;;;;;;;;;;;;;;;24.50;49.08;99156.75;3121014;28;19925;-64
2022/08/20 04:26:28;;;;;;;;;;;;;;;24.53;48.63;99156.41;3123818;28;20356;-64
2022/08/20 04:28:00;;;;;;;;;;;;;;;24.57;48.97;99167.53;3124186;28;19925;-64
2022/08/20 04:29:32;;;;;;;;;;;;;;;24.60;48.72;99161.84;3121216;28;19929;-64
2022/08/20 04:31:05;;;;;;;;;;;;;;;24.61;48.63;99169.69;3121062;28;20398;-64
2022/08/20 04:32:37;;;;;;;;;;;;;;;24.64;48.65;99169.31;3121204;28;20024;-64
2022/08/20 04:34:09;;;;;;;;;;;;;;;24.65;48.99;99170.97;3121373;28;19925;-64
2022/08/20 04:35:40;;;;;;;;;;;;;;;24.67;48.92;99173.47;3121367;28;19925;-64
2022/08/20 04:37:12;;;;;;;;;;;;;;;24.68;48.84;99175.13;3123242;28;19951;-64
2022/08/20 04:38:43;;;;;;;;;;;;;;;24.72;48.69;99173.75;3123396;28;19929;-64
2022/08/20 04:42:06;;;;;;;;;;;;;;;24.63;49.58;99175.63;3120692;28;19925;-64
2022/08/20 04:43:37;;;;;;;;;;;;;;;24.57;49.93;99175.50;3123267;28;19925;-64
2022/08/20 04:45:09;;;;;;;;;;;;;;;24.53;50.16;99177.69;3122842;28;19936;-64
2022/08/20 04:46:43;;;;;;;;;;;;;;;24.47;50.31;99176.56;3123331;28;19929;-64
2022/08/20 04:48:14;;;;;;;;;;;;;;;24.51;49.92;99174.38;3123038;28;19925;-64
2022/08/20 04:49:46;;;;;;;;;;;;;;;24.54;49.70;99167.88;3116599;28;20352;-64
2022/08/20 04:51:18;;;;;;;;;;;;;;;24.57;49.44;99170.19;3116071;28;19933;-64
2022/08/20 04:52:49;;;;;;;;;;;;;;;24.56;49.98;99168.53;3123291;28;20366;-64
2022/08/20 04:54:20;;;;;;;;;;;;;;;24.59;49.84;99170.84;3122542;28;19929;-64
2022/08/20 04:55:53;;;;;;;;;;;;;;;24.63;49.91;99175.63;3123197;28;19929;-64
2022/08/20 04:57:24;;;;;;;;;;;;;;;24.64;50.35;99173.78;3123152;28;20364;-64
2022/08/20 04:58:58;;;;;;;;;;;;;;;24.60;50.43;99177.81;3123509;28;19929;-66
2022/08/20 05:00:30;;;;;;;;;;;;;;;24.61;50.03;99175.00;3123272;28;19936;-65
2022/08/20 05:02:03;;;;;;;;;;;;;;;24.64;50.23;99174.66;3123496;28;20152;-65
2022/08/20 05:03:37;;;;;;;;;;;;;;;24.69;49.94;99177.59;3123386;28;19925;-65
2022/08/20 05:05:09;;;;;;;;;;;;;;;24.75;49.63;99173.41;3123529;28;19935;-64
2022/08/20 05:06:41;;;;;;;;;;;;;;;24.79;49.91;99171.22;3121974;28;19935;-65
2022/08/20 05:08:12;;;;;;;;;;;;;;;24.77;50.45;99174.06;3123146;28;19929;-65
2022/08/20 05:09:43;;;;;;;;;;;;;;;24.78;50.14;99173.06;3123408;28;19925;-65
2022/08/20 05:11:15;;;;;;;;;;;;;;;24.79;49.94;99166.75;3115340;28;19926;-65
2022/08/20 05:12:46;;;;;;;;;;;;;;;24.83;50.16;99165.38;3121148;28;19938;-65
2022/08/20 05:14:17;;;;;;;;;;;;;;;24.85;50.25;99159.88;3123032;28;19925;-64
2022/08/20 05:15:48;;;;;;;;;;;;;;;24.89;49.69;99169.16;3123362;28;19925;-65
2022/08/20 05:17:22;;;;;;;;;;;;;;;24.94;49.92;99164.16;3123180;28;19925;-65
2022/08/20 05:18:54;;;;;;;;;;;;;;;24.98;49.98;99168.09;3122977;28;20272;-65
2022/08/20 05:20:27;;;;;;;;;;;;;;;25.01;50.30;99170.41;3122891;28;19932;-65
2022/08/20 05:21:59;;;;;;;;;;;;;;;25.05;49.97;99171.69;3123150;28;19976;-64
2022/08/20 05:23:31;;;;;;;;;;;;;;;25.10;49.50;99166.69;3122796;28;19965;-65
2022/08/20 05:25:01;;;;;;;;;;;;;;;25.17;49.93;99166.81;3122980;28;19936;-65
2022/08/20 05:26:33;;;;;;;;;;;;;;;25.23;49.81;99175.94;3125700;28;20372;-64
2022/08/20 05:28:08;;;;;;;;;;;;;;;25.29;49.79;99175.22;3125261;28;19936;-65
2022/08/20 05:29:40;;;;;;;;;;;;;;;25.33;49.66;99182.69;3123108;28;19986;-65
2022/08/20 05:31:14;;;;;;;;;;;;;;;25.40;49.56;99180.13;3123042;28;19933;-65
2022/08/20 05:32:48;;;;;;;;;;;;;;;25.48;49.50;99179.25;3122762;28;19929;-65
2022/08/20 05:34:19;;;;;;;;;;;;;;;25.58;49.07;99177.94;3137806;27;19994;-67
2022/08/20 05:35:51;;;;;;;;;;;;;;;25.67;49.43;99177.88;3122959;28;19929;-65
2022/08/20 05:37:23;;;;;;;;;;;;;;;25.78;49.37;99177.44;3122166;28;19952;-64
2022/08/20 05:38:55;;;;;;;;;;;;;;;26.24;48.23;99175.47;3122897;28;19965;-64
2022/08/20 05:40:25;;;;;;;;;;;;;;;27.01;46.26;99171.44;3122918;28;19940;-64
2022/08/20 05:41:58;;;;;;;;;;;;;;;27.60;44.98;99168.47;3114656;28;19925;-64
2022/08/20 05:43:32;;;;;;;;;;;;;;;27.91;44.48;99169.94;3121379;28;20399;-64
2022/08/20 05:45:04;;;;;;;;;;;;;;;28.01;44.04;99167.75;3122637;28;20038;-64
2022/08/20 05:46:39;;;;;;;;;;;;;;;27.94;44.48;99174.06;3122339;28;20065;-64
2022/08/20 05:48:13;;;;;;;;;;;;;;;27.84;44.56;99169.09;3122617;28;20013;-64
2022/08/20 05:49:45;;;;;;;;;;;;;;;27.83;44.78;99173.59;3122895;28;19933;-64
2022/08/20 05:51:17;;;;;;;;;;;;;;;27.88;44.39;99176.50;3122822;28;19929;-65
2022/08/20 05:52:49;;;;;;;;;;;;;;;27.92;44.27;99168.91;3122705;28;20043;-64
2022/08/20 05:54:20;;;;;;;;;;;;;;;27.94;44.55;99174.06;3120959;28;19925;-64
2022/08/20 05:55:53;;;;;;;;;;;;;;;27.89;44.72;99178.19;3121191;28;19926;-65
2022/08/20 05:57:24;;;;;;;;;;;;;;;27.82;44.57;99177.28;3122686;28;19926;-64
2022/08/20 05:58:56;;;;;;;;;;;;;;;27.76;44.62;99172.69;3122703;28;19933;-65
2022/08/20 06:00:28;;;;;;;;;;;;;;;27.71;44.54;99172.44;3127371;27;19958;-65
2022/08/20 06:02:00;;;;;;;;;;;;;;;27.71;44.62;99164.41;3149373;27;19925;-65
2022/08/20 06:05:35;;;;;;;;;;;;;;;27.78;44.62;99168.00;3085252;28;20020;-65
2022/08/20 06:07:08;;;;;;;;;;;;;;;27.77;44.66;99168.97;3083566;28;19937;-65
2022/08/20 06:08:40;;;;;;;;;;;;;;;27.81;45.09;99164.94;3084940;28;19926;-65
2022/08/20 06:10:12;;;;;;;;;;;;;;;27.84;44.96;99169.91;3084905;28;19934;-65
2022/08/20 06:11:44;;;;;;;;;;;;;;;27.89;44.97;99166.63;3108783;28;19926;-65
2022/08/20 06:13:16;;;;;;;;;;;;;;;27.96;44.51;99159.47;3122404;28;19948;-65
2022/08/20 06:14:47;;;;;;;;;;;;;;;28.04;44.78;99170.03;3122430;28;19947;-65
2022/08/20 06:16:19;;;;;;;;;;;;;;;28.06;44.77;99164.47;3122632;28;19936;-65
2022/08/20 06:17:51;;;;;;;;;;;;;;;28.08;44.37;99165.09;3122477;28;19925;-65
2022/08/20 06:19:24;;;;;;;;;;;;;;;28.07;44.34;99168.78;3122390;28;19955;-65
2022/08/20 06:20:56;;;;;;;;;;;;;;;28.04;44.07;99169.19;3122669;28;19940;-65
2022/08/20 06:22:27;;;;;;;;;;;;;;;28.04;43.91;99169.19;3122464;28;19925;-65
2022/08/20 06:23:59;;;;;;;;;;;;;;;28.09;43.99;99166.75;3119553;28;19933;-65
2022/08/20 06:25:31;;;;;;;;;;;;;;;28.13;43.88;99170.69;3122340;28;20316;-65
2022/08/20 06:27:03;;;;;;;;;;;;;;;28.21;43.97;99162.47;3131749;28;19984;-65
2022/08/20 06:28:35;;;;;;;;;;;;;;;28.30;43.57;99166.63;3122368;28;20337;-64
2022/08/20 06:30:08;;;;;;;;;;;;;;;28.39;43.82;99166.47;3122546;28;19929;-65
2022/08/20 06:31:39;;;;;;;;;;;;;;;28.41;43.26;99157.25;3122489;28;19925;-65
2022/08/20 06:33:11;;;;;;;;;;;;;;;28.41;43.56;99159.91;3121983;28;19929;-65
2022/08/20 06:34:44;;;;;;;;;;;;;;;28.46;43.58;99162.00;3122782;28;19929;-64
2022/08/20 06:36:15;;;;;;;;;;;;;;;28.57;43.54;99159.56;3122476;28;19937;-66
2022/08/20 06:37:47;;;;;;;;;;;;;;;28.69;43.01;99157.13;3122443;28;20385;-65
2022/08/20 06:39:19;;;;;;;;;;;;;;;28.82;43.06;99166.22;3122315;28;20281;-66
2022/08/20 06:40:50;;;;;;;;;;;;;;;28.93;42.50;99157.56;3122172;28;19925;-65
2022/08/20 06:42:22;;;;;;;;;;;;;;;29.00;42.61;99163.78;3112243;28;19926;-65
2022/08/20 06:43:54;;;;;;;;;;;;;;;29.04;42.45;99162.38;3122209;28;19932;-65
2022/08/20 06:45:26;;;;;;;;;;;;;;;29.02;41.90;99159.91;3122398;28;19940;-65
2022/08/20 06:47:00;;;;;;;;;;;;;;;29.06;42.04;99160.31;3122148;28;19925;-65
2022/08/20 06:48:31;;;;;;;;;;;;;;;29.12;42.20;99158.69;3121985;28;20360;-65
2022/08/20 06:50:07;;;;;;;;;;;;;;;29.18;42.11;99164.03;3121976;28;19948;-65
2022/08/20 06:51:38;;;;;;;;;;;;;;;29.23;41.97;99158.91;3122344;28;19926;-65
2022/08/20 06:53:11;;;;;;;;;;;;;;;29.35;41.72;99158.28;3122012;28;19932;-65
2022/08/20 06:54:43;;;;;;;;;;;;;;;29.43;41.65;99158.03;3121968;28;20297;-65
2022/08/20 06:56:15;;;;;;;;;;;;;;;29.49;41.57;99154.56;3122286;28;19936;-65
2022/08/20 06:57:47;;;;;;;;;;;;;;;29.60;41.31;99163.81;3110163;28;20301;-64
2022/08/20 06:59:19;;;;;;;;;;;;;;;29.67;40.82;99154.78;3120265;28;20121;-65
2022/08/20 07:00:51;;;;;;;;;;;;;;;29.77;40.95;99161.56;3122054;28;20022;-65
2022/08/20 07:02:23;;;;;;;;;;;;;;;29.83;41.03;99158.88;3122107;28;19933;-65
2022/08/20 07:03:58;;;;;;;;;;;;;;;29.86;40.56;99165.69;3122400;28;19932;-65
2022/08/20 07:05:33;;;;;;;;;;;;;;;29.92;40.59;99165.66;3122228;28;19925;-65
2022/08/20 07:07:05;;;;;;;;;;;;;;;30.03;40.52;99164.19;3120816;28;19932;-66
2022/08/20 07:08:37;;;;;;;;;;;;;;;30.16;40.39;99158.78;3121869;28;19929;-65
2022/08/20 07:10:10;;;;;;;;;;;;;;;30.26;40.18;99162.91;3122181;28;19926;-65
2022/08/20 07:11:42;;;;;;;;;;;;;;;30.34;40.21;99159.97;3111981;28;19949;-65
2022/08/20 07:13:15;;;;;;;;;;;;;;;30.39;39.95;99154.78;3122035;28;19940;-65
2022/08/20 07:14:46;;;;;;;;;;;;;;;30.42;39.92;99156.25;3122237;28;19929;-65
2022/08/20 07:16:18;;;;;;;;;;;;;;;30.45;39.96;99156.63;3122132;28;19925;-65
2022/08/20 07:17:49;;;;;;;;;;;;;;;30.52;40.16;99152.03;3121878;28;19936;-65
2022/08/20 07:19:21;;;;;;;;;;;;;;;30.60;39.89;99154.47;3121847;28;19943;-65
2022/08/20 07:20:55;;;;;;;;;;;;;;;30.65;39.67;99151.16;3122258;28;19935;-65
2022/08/20 07:22:27;;;;;;;;;;;;;;;30.66;39.65;99146.59;3121724;28;19937;-65
2022/08/20 07:23:58;;;;;;;;;;;;;;;30.69;39.64;99146.16;3121827;28;19926;-65
2022/08/20 07:25:32;;;;;;;;;;;;;;;30.63;38.90;99142.47;3121866;28;19936;-65
2022/08/20 07:27:04;;;;;;;;;;;;;;;30.53;39.23;99147.50;3131177;28;20051;-65
2022/08/20 07:28:35;;;;;;;;;;;;;;;30.55;39.30;99148.09;3121873;28;19925;-65
2022/08/20 07:33:46;;;;;;;;;;;;;;;30.81;39.30;99139.09;3121785;28;20278;-64
2022/08/20 07:35:18;;;;;;;;;;;;;;;30.93;39.44;99141.91;3121960;28;19925;-65
2022/08/20 07:36:51;;;;;;;;;;;;;;;31.06;39.07;99131.06;3121908;28;19933;-65
2022/08/20 07:38:23;;;;;;;;;;;;;;;31.18;38.63;99133.88;3121720;28;19925;-65
2022/08/20 07:39:55;;;;;;;;;;;;;;;31.29;38.87;99138.53;3121383;28;19937;-65
2022/08/20 07:41:26;;;;;;;;;;;;;;;31.43;38.55;99141.97;3114228;28;19956;-64
2022/08/20 07:42:59;;;;;;;;;;;;;;;31.51;38.20;99133.63;3116096;28;19925;-64
2022/08/20 07:44:33;;;;;;;;;;;;;;;31.56;38.16;99135.63;3121145;28;20252;-65
2022/08/20 07:46:07;;;;;;;;;;;;;;;31.61;38.08;99131.22;3121610;28;20337;-64
2022/08/20 07:47:40;;;;;;;;;;;;;;;31.71;37.85;99123.47;3121884;28;19925;-65
2022/08/20 07:49:12;;;;;;;;;;;;;;;31.67;37.43;99124.94;3121844;28;19940;-64
2022/08/20 07:50:43;;;;;;;;;;;;;;;31.75;37.81;99126.53;3121782;28;19929;-65
2022/08/20 07:52:16;;;;;;;;;;;;;;;31.86;37.58;99125.81;3121935;28;19947;-64
2022/08/20 07:53:49;;;;;;;;;;;;;;;31.95;37.55;99126.34;3121717;28;20413;-64
2022/08/20 07:55:21;;;;;;;;;;;;;;;32.05;37.47;99121.25;3121632;28;19925;-65
2022/08/20 07:56:53;;;;;;;;;;;;;;;32.14;37.43;99124.47;3121792;28;19933;-65
2022/08/20 07:58:24;;;;;;;;;;;;;;;32.21;36.89;99121.69;3121837;28;19936;-64
2022/08/20 07:59:58;;;;;;;;;;;;;;;32.31;36.85;99120.09;3121477;28;19929;-64
2022/08/20 08:01:31;;;;;;;;;;;;;;;32.45;36.79;99114.56;3136405;27;19925;-65
2022/08/20 08:03:03;;;;;;;;;;;;;;;32.55;36.76;99115.66;3113071;28;20424;-65
2022/08/20 08:04:36;;;;;;;;;;;;;;;32.66;36.97;99108.69;3109670;28;19925;-64
2022/08/20 08:06:08;;;;;;;;;;;;;;;32.69;36.34;99107.41;3120260;28;19948;-64
2022/08/20 08:07:42;;;;;;;;;;;;;;;32.71;36.10;99108.78;3121460;28;20456;-63
2022/08/20 08:09:14;;;;;;;;;;;;;;;32.77;36.22;99107.03;3121503;28;19940;-63
2022/08/20 08:10:46;;;;;;;;;;;;;;;32.92;36.30;99107.44;3117953;28;19929;-64